createdAt,value
2018-05-16T00:00:39.256Z,98026.45
2018-05-16T00:03:06.809Z,98018.98
2018-05-16T00:05:34.410Z,98019.64
2018-05-16T00:08:02.054Z,98010.16
2018-05-16T00:10:29.569Z,98007.25
2018-05-16T00:12:57.134Z,98004.83
2018-05-16T00:15:24.720Z,98007.94
2018-05-16T00:17:52.303Z,98005.13
2018-05-16T00:20:19.881Z,98013.32
2018-05-16T00:22:47.450Z,98006.08
2018-05-16T00:25:15.032Z,97996.57
2018-05-16T00:27:42.582Z,97993.88
2018-05-16T00:30:10.133Z,97989.09
2018-05-16T00:32:37.703Z,97996.34
2018-05-16T00:35:05.359Z,98005.45
2018-05-16T00:37:32.904Z,98014.83
2018-05-16T00:40:00.520Z,98015.78
2018-05-16T00:42:28.069Z,98011.51
2018-05-16T00:44:55.652Z,98014.53
2018-05-16T00:47:23.216Z,98009.61
2018-05-16T00:49:50.835Z,98009.41
2018-05-16T00:52:18.413Z,98013.91
2018-05-16T00:54:46.004Z,98011.84
2018-05-16T00:57:13.547Z,98014.21
2018-05-16T00:59:41.118Z,98008.00
2018-05-16T01:02:08.691Z,98011.08
2018-05-16T01:04:36.266Z,98008.72
2018-05-16T01:07:03.837Z,98012.83
2018-05-16T01:09:31.386Z,98008.30
2018-05-16T01:11:59.660Z,98005.59
2018-05-16T01:14:27.229Z,98004.55
2018-05-16T01:16:54.850Z,98000.44
2018-05-16T01:19:22.480Z,98006.70
2018-05-16T01:21:50.066Z,98007.25
2018-05-16T01:24:17.621Z,98008.03
2018-05-16T01:26:45.255Z,98006.40
2018-05-16T01:29:12.802Z,98009.77
2018-05-16T01:31:40.364Z,98008.04
2018-05-16T01:34:07.959Z,97998.66
2018-05-16T01:36:35.503Z,97997.91
2018-05-16T01:39:03.136Z,98001.58
2018-05-16T01:41:30.717Z,98004.34
2018-05-16T01:43:58.282Z,98008.08
2018-05-16T01:46:25.817Z,98007.15
2018-05-16T01:49:05.301Z,98022.33
2018-05-16T01:51:32.868Z,98024.44
2018-05-16T01:54:00.431Z,98031.36
2018-05-16T01:56:28.007Z,98030.80
2018-05-16T01:58:55.567Z,98025.66
2018-05-16T02:01:23.128Z,98025.91
2018-05-16T02:03:50.687Z,98026.63
2018-05-16T02:06:18.265Z,98020.82
2018-05-16T02:08:45.842Z,98016.22
2018-05-16T02:11:13.369Z,98019.50
2018-05-16T02:13:41.005Z,98020.88
2018-05-16T02:16:08.625Z,98017.06
2018-05-16T02:18:36.194Z,98023.38
2018-05-16T02:21:03.760Z,98016.49
2018-05-16T02:23:31.292Z,98012.42
2018-05-16T02:25:58.860Z,98003.72
2018-05-16T02:28:26.499Z,97998.00
2018-05-16T02:30:54.036Z,97996.11
2018-05-16T02:33:21.613Z,97986.77
2018-05-16T02:35:49.207Z,97988.77
2018-05-16T02:38:16.892Z,97995.27
2018-05-16T02:40:44.476Z,97994.30
2018-05-16T02:43:12.064Z,97991.64
2018-05-16T02:45:39.652Z,98000.73
2018-05-16T02:48:07.211Z,98001.05
2018-05-16T02:50:34.765Z,98005.78
2018-05-16T02:53:02.331Z,97992.50
2018-05-16T02:55:29.908Z,97991.30
2018-05-16T02:57:57.508Z,97982.47
2018-05-16T03:00:25.060Z,97979.96
2018-05-16T03:02:52.631Z,97978.44
2018-05-16T03:05:20.178Z,97980.07
2018-05-16T03:07:47.744Z,97983.17
2018-05-16T03:10:15.384Z,97984.81
2018-05-16T03:12:42.954Z,97991.45
2018-05-16T03:15:10.496Z,97983.27
2018-05-16T03:17:38.113Z,97986.20
2018-05-16T03:20:05.658Z,97987.60
2018-05-16T03:22:33.212Z,97977.39
2018-05-16T03:25:00.855Z,97978.14
2018-05-16T03:27:28.423Z,97981.16
2018-05-16T03:29:55.990Z,97985.47
2018-05-16T03:32:23.530Z,97986.08
2018-05-16T03:34:51.098Z,97984.19
2018-05-16T03:37:18.642Z,97984.17
2018-05-16T03:39:46.238Z,97987.45
2018-05-16T03:42:13.798Z,97986.20
2018-05-16T03:44:41.374Z,97983.70
2018-05-16T03:47:08.923Z,97988.31
2018-05-16T03:49:36.473Z,97981.90
2018-05-16T03:52:04.086Z,97990.44
2018-05-16T03:54:31.714Z,97983.22
2018-05-16T03:56:59.267Z,97984.78
2018-05-16T03:59:38.633Z,97984.34
2018-05-16T04:02:18.103Z,97981.95
2018-05-16T04:04:45.701Z,97980.03
2018-05-16T04:07:13.255Z,97977.56
2018-05-16T04:09:40.791Z,97975.69
2018-05-16T04:12:08.401Z,97977.53
2018-05-16T04:14:35.979Z,97981.20
2018-05-16T04:17:03.590Z,97978.30
2018-05-16T04:19:31.138Z,97979.61
2018-05-16T04:21:58.720Z,97979.64
2018-05-16T04:24:26.272Z,97978.75
2018-05-16T04:26:53.879Z,97981.38
2018-05-16T04:29:21.471Z,97980.25
2018-05-16T04:31:49.088Z,97985.47
2018-05-16T04:34:16.645Z,97983.99
2018-05-16T04:36:44.253Z,97982.61
2018-05-16T04:39:11.791Z,97981.90
2018-05-16T04:41:39.390Z,97976.39
2018-05-16T04:44:06.972Z,97979.97
2018-05-16T04:46:34.539Z,97977.26
2018-05-16T04:49:02.123Z,97980.73
2018-05-16T04:51:29.686Z,97974.25
2018-05-16T04:53:57.268Z,97978.09
2018-05-16T04:56:24.796Z,97977.23
2018-05-16T04:58:52.383Z,97972.15
2018-05-16T05:01:19.967Z,97978.25
2018-05-16T05:03:47.481Z,97982.09
2018-05-16T05:06:15.018Z,97980.09
2018-05-16T05:08:42.652Z,97973.09
2018-05-16T05:11:10.262Z,97975.39
2018-05-16T05:13:37.851Z,97978.36
2018-05-16T05:16:05.368Z,97970.28
2018-05-16T05:18:33.032Z,97971.88
2018-05-16T05:21:00.499Z,97974.09
2018-05-16T05:23:28.093Z,97978.19
2018-05-16T05:25:55.686Z,97982.11
2018-05-16T05:28:23.253Z,97972.95
2018-05-16T05:30:50.845Z,97975.59
2018-05-16T05:33:18.411Z,97977.86
2018-05-16T05:35:45.963Z,97978.58
2018-05-16T05:38:13.506Z,97974.66
2018-05-16T05:40:41.026Z,97972.97
2018-05-16T05:43:08.583Z,97971.03
2018-05-16T05:45:36.228Z,97968.64
2018-05-16T05:48:03.824Z,97965.58
2018-05-16T05:50:31.503Z,97969.29
2018-05-16T05:52:59.114Z,97972.81
2018-05-16T05:55:26.727Z,97965.86
2018-05-16T05:57:54.310Z,97972.67
2018-05-16T06:00:21.872Z,97971.49
2018-05-16T06:02:49.420Z,97975.87
2018-05-16T06:05:16.956Z,97971.73
2018-05-16T06:07:44.588Z,97967.02
2018-05-16T06:10:12.144Z,97971.20
2018-05-16T06:12:39.843Z,97971.40
2018-05-16T06:15:08.998Z,97969.50
2018-05-16T06:17:36.650Z,97960.80
2018-05-16T06:20:04.284Z,97963.63
2018-05-16T06:22:31.852Z,97960.41
2018-05-16T06:24:59.500Z,97959.05
2018-05-16T06:27:27.413Z,97966.55
2018-05-16T06:29:55.183Z,97960.88
2018-05-16T06:32:22.715Z,97958.55
2018-05-16T06:34:50.915Z,97957.77
2018-05-16T06:37:18.627Z,97958.54
2018-05-16T06:39:46.300Z,97947.39
2018-05-16T06:42:13.869Z,97950.91
2018-05-16T06:44:41.400Z,97957.72
2018-05-16T06:47:09.011Z,97955.78
2018-05-16T06:49:36.550Z,97954.56
2018-05-16T06:52:04.104Z,97953.55
2018-05-16T06:54:31.729Z,97954.27
2018-05-16T06:56:59.285Z,97950.67
2018-05-16T06:59:26.799Z,97952.11
2018-05-16T07:01:54.431Z,97957.69
2018-05-16T07:04:22.134Z,97965.39
2018-05-16T07:06:49.695Z,97966.34
2018-05-16T07:09:17.302Z,97967.95
2018-05-16T07:11:44.876Z,97967.38
2018-05-16T07:14:12.490Z,97970.20
2018-05-16T07:16:40.077Z,97970.96
2018-05-16T07:19:07.635Z,97963.30
2018-05-16T07:21:35.245Z,97971.42
2018-05-16T07:24:03.348Z,97977.09
2018-05-16T07:26:30.924Z,97976.56
2018-05-16T07:28:58.637Z,97980.77
2018-05-16T07:31:26.216Z,97984.09
2018-05-16T07:33:53.778Z,97986.19
2018-05-16T07:36:21.381Z,97985.16
2018-05-16T07:38:48.942Z,97981.42
2018-05-16T07:41:16.629Z,97991.71
2018-05-16T07:43:44.115Z,97991.19
2018-05-16T07:46:11.658Z,97989.37
2018-05-16T07:48:39.336Z,97996.45
2018-05-16T07:51:06.935Z,98001.05
2018-05-16T07:53:34.507Z,98002.05
2018-05-16T07:56:02.214Z,98000.12
2018-05-16T07:58:29.686Z,98006.84
2018-05-16T08:00:57.289Z,98015.92
2018-05-16T08:03:24.886Z,98012.68
2018-05-16T08:05:52.483Z,98019.52
2018-05-16T08:08:20.093Z,98021.82
2018-05-16T08:10:47.657Z,98016.58
2018-05-16T08:13:15.212Z,98023.86
2018-05-16T08:15:42.793Z,98027.26
2018-05-16T08:18:10.356Z,98023.03
2018-05-16T08:20:37.929Z,98025.05
2018-05-16T08:23:05.499Z,98025.90
2018-05-16T08:25:33.105Z,98019.83
2018-05-16T08:28:00.641Z,98025.31
2018-05-16T08:30:28.441Z,98029.60
2018-05-16T08:32:56.943Z,98020.03
2018-05-16T08:35:24.575Z,98024.22
2018-05-16T08:37:52.143Z,98025.67
2018-05-16T08:40:19.697Z,98022.70
2018-05-16T08:42:47.250Z,98020.55
2018-05-16T08:45:14.867Z,98029.50
2018-05-16T08:47:42.484Z,98032.49
2018-05-16T08:50:10.011Z,98037.66
2018-05-16T08:52:37.564Z,98037.00
2018-05-16T08:55:05.106Z,98033.65
2018-05-16T08:57:32.810Z,98039.78
2018-05-16T09:00:00.537Z,98040.89
2018-05-16T09:02:28.380Z,98039.75
2018-05-16T09:04:55.935Z,98035.63
2018-05-16T09:07:23.509Z,98035.37
2018-05-16T09:09:51.136Z,98037.17
2018-05-16T09:12:18.678Z,98035.14
2018-05-16T09:14:46.279Z,98038.19
2018-05-16T09:17:13.912Z,98037.38
2018-05-16T09:19:41.457Z,98039.30
2018-05-16T09:22:08.983Z,98041.39
2018-05-16T09:24:36.575Z,98043.87
2018-05-16T09:27:04.243Z,98048.23
2018-05-16T09:29:32.264Z,98043.38
2018-05-16T09:31:59.853Z,98046.86
2018-05-16T09:34:27.445Z,98049.63
2018-05-16T09:36:54.996Z,98053.90
2018-05-16T09:39:22.598Z,98051.94
2018-05-16T09:41:50.155Z,98055.67
2018-05-16T09:44:17.717Z,98059.42
2018-05-16T09:46:45.269Z,98055.36
2018-05-16T09:49:12.802Z,98055.92
2018-05-16T09:51:40.382Z,98060.92
2018-05-16T09:54:08.021Z,98059.35
2018-05-16T09:56:35.796Z,98062.22
2018-05-16T09:59:03.346Z,98068.61
2018-05-16T10:01:31.054Z,98064.40
2018-05-16T10:03:58.670Z,98069.94
2018-05-16T10:06:26.444Z,98069.55
2018-05-16T10:08:54.073Z,98079.10
2018-05-16T10:11:21.644Z,98075.30
2018-05-16T10:13:49.238Z,98069.45
2018-05-16T10:16:16.868Z,98078.81
2018-05-16T10:18:44.574Z,98079.33
2018-05-16T10:21:12.154Z,98077.82
2018-05-16T10:23:39.765Z,98078.11
2018-05-16T10:26:07.352Z,98079.27
2018-05-16T10:28:34.879Z,98082.32
2018-05-16T10:31:02.473Z,98087.26
2018-05-16T10:33:30.073Z,98087.52
2018-05-16T10:35:57.788Z,98093.05
2018-05-16T10:38:25.460Z,98095.89
2018-05-16T10:40:53.052Z,98095.25
2018-05-16T10:43:20.590Z,98099.12
2018-05-16T10:45:48.159Z,98094.37
2018-05-16T10:48:15.747Z,98101.78
2018-05-16T10:50:43.298Z,98097.70
2018-05-16T10:53:10.899Z,98098.36
2018-05-16T10:55:38.504Z,98098.09
2018-05-16T10:58:06.111Z,98089.81
2018-05-16T11:00:33.685Z,98102.67
2018-05-16T11:03:01.251Z,98096.48
2018-05-16T11:05:28.840Z,98099.69
2018-05-16T11:07:56.426Z,98109.13
2018-05-16T11:10:24.033Z,98099.34
2018-05-16T11:12:51.604Z,98101.36
2018-05-16T11:15:19.167Z,98102.41
2018-05-16T11:17:46.723Z,98106.09
2018-05-16T11:20:14.332Z,98105.48
2018-05-16T11:22:41.900Z,98101.95
2018-05-16T11:25:09.496Z,98102.69
2018-05-16T11:27:37.127Z,98098.43
2018-05-16T11:30:04.693Z,98090.93
2018-05-16T11:32:32.267Z,98093.70
2018-05-16T11:34:59.876Z,98085.92
2018-05-16T11:37:27.414Z,98084.97
2018-05-16T11:39:54.982Z,98087.27
2018-05-16T11:42:22.570Z,98090.72
2018-05-16T11:44:50.117Z,98087.64
2018-05-16T11:47:17.687Z,98084.59
2018-05-16T11:49:45.309Z,98084.17
2018-05-16T11:52:12.845Z,98084.50
2018-05-16T11:54:40.395Z,98080.13
2018-05-16T11:57:07.959Z,98086.41
2018-05-16T11:59:35.649Z,98080.25
2018-05-16T12:02:03.678Z,98086.55
2018-05-16T12:04:37.560Z,98097.08
2018-05-16T12:07:06.457Z,98096.48
2018-05-16T12:09:39.566Z,98096.16
2018-05-16T12:12:07.310Z,98094.54
2018-05-16T12:14:35.674Z,98098.06
2018-05-16T12:17:03.377Z,98096.21
2018-05-16T12:19:30.920Z,98096.23
2018-05-16T12:21:58.554Z,98103.48
2018-05-16T12:24:26.214Z,98098.84
2018-05-16T12:26:53.767Z,98106.80
2018-05-16T12:29:21.506Z,98099.61
2018-05-16T12:31:50.653Z,98088.67
2018-05-16T12:34:21.078Z,98077.83
2018-05-16T12:36:48.796Z,98076.84
2018-05-16T12:39:16.473Z,98078.72
2018-05-16T12:41:44.164Z,98078.05
2018-05-16T12:44:13.025Z,98084.48
2018-05-16T12:46:40.767Z,98081.91
2018-05-16T12:49:08.305Z,98087.81
2018-05-16T12:51:35.908Z,98088.33
2018-05-16T12:54:03.553Z,98083.90
2018-05-16T12:56:31.294Z,98088.21
2018-05-16T12:58:58.809Z,98085.17
2018-05-16T13:01:26.393Z,98078.59
2018-05-16T13:03:53.990Z,98076.25
2018-05-16T13:06:21.746Z,98083.48
2018-05-16T13:08:49.385Z,98075.33
2018-05-16T13:11:17.012Z,98083.75
2018-05-16T13:13:44.682Z,98095.00
2018-05-16T13:16:12.224Z,98091.88
2018-05-16T13:18:39.735Z,98086.46
2018-05-16T13:21:07.301Z,98084.36
2018-05-16T13:23:34.840Z,98082.70
2018-05-16T13:26:02.393Z,98089.52
2018-05-16T13:28:30.049Z,98080.60
2018-05-16T13:30:57.591Z,98086.06
2018-05-16T13:33:25.143Z,98085.33
2018-05-16T13:35:52.700Z,98086.84
2018-05-16T13:38:20.285Z,98079.41
2018-05-16T13:40:47.846Z,98083.73
2018-05-16T13:43:15.379Z,98078.16
2018-05-16T13:45:43.014Z,98073.47
2018-05-16T13:48:10.553Z,98071.53
2018-05-16T13:50:38.196Z,98066.92
2018-05-16T13:53:05.770Z,98065.18
2018-05-16T13:55:33.375Z,98065.72
2018-05-16T13:58:00.943Z,98058.77
2018-05-16T14:09:28.682Z,98077.53
2018-05-16T14:23:19.930Z,98088.19
2018-05-16T14:25:47.410Z,98085.16
2018-05-16T14:28:14.931Z,98085.73
2018-05-16T14:30:42.411Z,98093.88
2018-05-16T14:33:09.950Z,98093.70
2018-05-16T14:35:37.408Z,98101.37
2018-05-16T14:38:04.892Z,98109.34
2018-05-16T14:40:32.375Z,98121.91
2018-05-16T14:42:59.998Z,98132.96
2018-05-16T14:45:27.365Z,98133.29
2018-05-16T14:47:54.830Z,98143.03
2018-05-16T14:50:22.299Z,98161.00
2018-05-16T14:52:49.801Z,98167.92
2018-05-16T14:55:17.278Z,98174.97
2018-05-16T14:57:44.740Z,98179.11
2018-05-16T15:00:12.230Z,98180.77
2018-05-16T15:02:39.700Z,98177.55
2018-05-16T15:05:07.166Z,98180.41
2018-05-16T15:07:34.656Z,98176.72
2018-05-16T15:10:02.117Z,98175.55
2018-05-16T15:12:29.613Z,98177.39
2018-05-16T15:17:47.522Z,98173.23
2018-05-16T15:20:15.055Z,98164.95
2018-05-16T15:22:44.167Z,98165.44
2018-05-16T15:25:11.864Z,98159.76
2018-05-16T15:27:39.320Z,98162.25
2018-05-16T15:30:06.862Z,98152.69
2018-05-16T15:32:34.323Z,98163.38
2018-05-16T15:57:52.654Z,98154.33
2018-05-16T16:00:20.123Z,98159.08
2018-05-16T16:02:47.591Z,98166.76
2018-05-16T16:05:15.165Z,98160.53
2018-05-16T16:07:42.653Z,98155.75
2018-05-16T16:10:10.120Z,98143.98
2018-05-16T16:12:37.614Z,98145.67
2018-05-16T16:15:05.118Z,98151.67
2018-05-16T16:17:33.509Z,98148.48
2018-05-16T16:20:01.473Z,98150.88
2018-05-16T17:08:11.617Z,98135.99
2018-05-16T17:10:39.079Z,98136.69
2018-05-16T17:13:06.540Z,98144.97
2018-05-16T17:15:34.009Z,98141.65
2018-05-16T17:18:01.495Z,98146.45
2018-05-16T17:26:10.142Z,98150.34
2018-05-16T17:28:37.609Z,98145.64
2018-05-16T17:48:04.325Z,98165.11
2018-05-16T17:50:31.778Z,98165.55
2018-05-16T18:04:22.407Z,98162.78
2018-05-16T18:06:49.864Z,98170.02
2018-05-16T18:15:12.800Z,98169.48
2018-05-16T18:17:40.285Z,98167.42
2018-05-16T18:20:07.751Z,98164.72
2018-05-16T18:22:35.221Z,98168.38
2018-05-16T18:25:02.693Z,98163.87
2018-05-16T18:27:30.213Z,98168.70
2018-05-16T18:30:14.384Z,98167.70
2018-05-16T18:32:41.857Z,98178.97
2018-05-16T18:35:09.345Z,98185.52
2018-05-16T18:37:36.823Z,98188.99
2018-05-16T18:48:37.076Z,98189.60
2018-05-16T18:51:04.560Z,98192.48
2018-05-16T18:53:32.032Z,98197.63
2018-05-16T18:55:59.532Z,98199.85
2018-05-16T18:58:27.019Z,98203.70
2018-05-16T19:00:54.495Z,98208.77
2018-05-16T19:03:21.980Z,98204.08
2018-05-16T19:05:49.496Z,98209.97
2018-05-16T19:08:16.988Z,98208.83
2018-05-16T19:10:44.483Z,98212.47
2018-05-16T19:13:11.968Z,98217.03
2018-05-16T19:15:39.491Z,98220.95
2018-05-16T19:18:07.016Z,98217.11
2018-05-16T19:26:15.746Z,98230.80
2018-05-16T19:28:43.249Z,98235.70
2018-05-16T19:31:10.737Z,98243.48
2018-05-16T19:33:38.224Z,98246.33
2018-05-16T19:36:05.702Z,98253.44
2018-05-16T19:38:33.227Z,98253.61
2018-05-16T19:41:00.728Z,98254.36
2018-05-16T19:43:28.193Z,98254.86
2018-05-16T19:45:55.684Z,98258.84
2018-05-16T19:48:23.215Z,98263.75
2018-05-16T19:50:50.747Z,98259.98
2018-05-16T19:53:18.241Z,98258.84
2018-05-16T19:55:45.742Z,98260.81
2018-05-16T19:58:13.231Z,98254.82
2018-05-16T20:00:40.737Z,98247.80
2018-05-16T20:03:08.228Z,98254.89
2018-05-16T20:05:35.789Z,98257.22
2018-05-16T20:08:03.294Z,98263.99
2018-05-16T20:10:30.845Z,98265.48
2018-05-16T20:12:58.356Z,98264.28
2018-05-16T20:15:25.857Z,98268.55
2018-05-16T20:17:53.355Z,98266.52
2018-05-16T20:20:20.814Z,98264.38
2018-05-16T20:22:48.303Z,98262.98
2018-05-16T20:25:15.804Z,98261.91
2018-05-16T20:27:43.280Z,98269.09
2018-05-16T20:30:10.743Z,98262.55
2018-05-16T20:32:38.219Z,98260.75
2018-05-16T20:35:05.682Z,98265.48
2018-05-16T20:37:33.161Z,98264.17
2018-05-16T20:40:00.739Z,98272.55
2018-05-16T20:42:28.182Z,98279.34
2018-05-16T20:44:55.674Z,98277.41
2018-05-16T20:47:23.146Z,98274.41
2018-05-16T20:49:50.711Z,98279.27
2018-05-16T20:52:18.185Z,98285.24
2018-05-16T20:54:45.652Z,98292.42
2018-05-16T20:57:13.147Z,98295.08
2018-05-16T20:59:40.626Z,98289.38
2018-05-16T21:02:08.112Z,98290.88
2018-05-16T21:04:38.110Z,98300.48
2018-05-16T22:04:17.019Z,98297.36
2018-05-16T22:06:44.485Z,98300.34
2018-05-16T22:09:11.968Z,98299.18
2018-05-16T22:11:40.437Z,98299.59
2018-05-16T22:14:26.491Z,98298.94
2018-05-16T22:16:53.963Z,98297.83
2018-05-16T22:19:21.433Z,98294.63
2018-05-16T22:21:48.908Z,98289.50
2018-05-16T22:24:17.151Z,98291.20
2018-05-16T22:26:44.640Z,98293.47
2018-05-16T22:32:08.762Z,98285.62
2018-05-16T22:34:41.853Z,98281.31
2018-05-16T22:37:14.934Z,98280.34
2018-05-16T22:39:48.078Z,98280.47
2018-05-16T22:42:21.206Z,98279.77
2018-05-16T22:44:52.669Z,98275.56
2018-05-16T22:47:20.160Z,98272.39
2018-05-16T22:49:47.651Z,98273.27
2018-05-16T22:52:15.209Z,98264.00
2018-05-16T22:54:42.708Z,98266.75
2018-05-16T22:57:10.201Z,98262.44
2018-05-16T22:59:37.723Z,98264.95
2018-05-16T23:02:05.219Z,98269.63
2018-05-16T23:04:32.693Z,98269.03
2018-05-16T23:07:11.197Z,98255.45
2018-05-16T23:09:38.661Z,98252.73
2018-05-16T23:20:39.084Z,98263.36
2018-05-16T23:23:06.556Z,98265.00
2018-05-16T23:25:34.067Z,98264.45
2018-05-16T23:28:01.640Z,98257.19
2018-05-16T23:30:29.192Z,98249.19
2018-05-16T23:32:56.663Z,98254.47
2018-05-16T23:35:24.131Z,98248.81
2018-05-16T23:57:59.126Z,98259.28
